createdAt,value
2019-02-08T00:01:45.539Z,-1.46
2019-02-08T00:04:50.764Z,-1.58
2019-02-08T00:07:55.972Z,-1.63
2019-02-08T00:11:02.275Z,-1.59
2019-02-08T00:14:07.681Z,-1.57
2019-02-08T00:17:12.851Z,-1.70
2019-02-08T00:20:18.228Z,-1.68
2019-02-08T00:23:26.683Z,-1.75
2019-02-08T00:26:30.278Z,-1.65
2019-02-08T00:29:35.431Z,-1.53
2019-02-08T00:32:40.523Z,-1.51
2019-02-08T00:35:45.718Z,-1.59
2019-02-08T00:38:50.815Z,-1.62
2019-02-08T00:41:56.018Z,-1.52
2019-02-08T00:45:01.133Z,-1.49
2019-02-08T00:48:06.399Z,-1.58
2019-02-08T00:51:11.476Z,-1.54
2019-02-08T00:54:16.706Z,-1.48
2019-02-08T00:57:21.891Z,-1.50
2019-02-08T01:00:27.052Z,-1.49
2019-02-08T01:03:32.701Z,-1.46
2019-02-08T01:06:38.341Z,-1.43
2019-02-08T01:09:43.494Z,-1.24
2019-02-08T01:12:48.782Z,-1.39
2019-02-08T01:15:54.253Z,-1.36
2019-02-08T01:18:59.349Z,-1.40
2019-02-08T01:22:06.914Z,-1.39
2019-02-08T01:25:15.243Z,-1.50
2019-02-08T01:28:20.378Z,-1.47
2019-02-08T01:31:25.489Z,-1.50
2019-02-08T01:34:30.672Z,-1.47
2019-02-08T01:37:35.760Z,-1.61
2019-02-08T01:40:40.994Z,-1.57
2019-02-08T01:43:46.135Z,-1.56
2019-02-08T01:46:51.261Z,-1.55
2019-02-08T01:49:56.443Z,-1.58
2019-02-08T01:53:01.768Z,-1.70
2019-02-08T01:56:06.974Z,-1.52
2019-02-08T01:59:12.204Z,-1.57
2019-02-08T02:02:17.427Z,-1.58
2019-02-08T02:05:22.629Z,-1.60
2019-02-08T02:08:27.776Z,-1.69
2019-02-08T02:11:32.903Z,-1.65
2019-02-08T02:14:38.162Z,-1.45
2019-02-08T02:17:43.293Z,-1.45
2019-02-08T02:20:48.557Z,-1.57
2019-02-08T02:23:56.212Z,-1.53
2019-02-08T02:27:00.579Z,-1.55
2019-02-08T02:30:08.305Z,-1.53
2019-02-08T02:33:13.934Z,-1.41
2019-02-08T02:36:19.056Z,-1.40
2019-02-08T02:39:24.371Z,-1.45
2019-02-08T02:42:29.530Z,-1.48
2019-02-08T02:45:36.468Z,-1.48
2019-02-08T02:48:41.591Z,-1.37
2019-02-08T02:51:46.717Z,-1.42
2019-02-08T02:54:52.033Z,-1.51
2019-02-08T02:57:57.496Z,-1.40
2019-02-08T03:01:02.685Z,-1.43
2019-02-08T03:04:07.960Z,-1.46
2019-02-08T03:07:13.067Z,-1.46
2019-02-08T03:10:19.001Z,-1.42
2019-02-08T03:13:24.261Z,-1.49
2019-02-08T03:16:29.449Z,-1.50
2019-02-08T03:19:34.565Z,-1.53
2019-02-08T03:22:39.755Z,-1.56
2019-02-08T03:25:44.945Z,-1.56
2019-02-08T03:28:50.219Z,-1.59
2019-02-08T03:31:55.276Z,-1.60
2019-02-08T03:35:00.402Z,-1.59
2019-02-08T03:38:05.765Z,-1.64
2019-02-08T03:41:10.965Z,-1.64
2019-02-08T03:44:16.188Z,-1.39
2019-02-08T03:47:21.328Z,-1.60
2019-02-08T03:50:26.460Z,-1.52
2019-02-08T03:53:31.614Z,-1.58
2019-02-08T03:56:36.705Z,-1.63
2019-02-08T03:59:41.796Z,-1.60
2019-02-08T04:02:46.973Z,-1.70
2019-02-08T04:05:52.181Z,-1.77
2019-02-08T04:08:57.343Z,-1.83
2019-02-08T04:12:02.487Z,-1.74
2019-02-08T04:15:09.901Z,-1.80
2019-02-08T04:18:15.042Z,-1.75
2019-02-08T04:21:20.178Z,-1.86
2019-02-08T04:24:30.070Z,-1.81
2019-02-08T04:27:32.165Z,-1.85
2019-02-08T04:30:37.390Z,-1.80
2019-02-08T04:33:43.559Z,-1.74
2019-02-08T04:36:48.706Z,-1.79
2019-02-08T04:39:53.883Z,-1.69
2019-02-08T04:42:59.165Z,-1.63
2019-02-08T04:46:04.257Z,-1.66
2019-02-08T04:49:09.530Z,-1.62
2019-02-08T04:52:14.700Z,-1.68
2019-02-08T04:55:20.350Z,-1.62
2019-02-08T04:58:25.463Z,-1.60
2019-02-08T05:01:30.569Z,-1.59
2019-02-08T05:04:35.750Z,-1.58
2019-02-08T05:07:40.886Z,-1.74
2019-02-08T05:10:46.081Z,-1.79
2019-02-08T05:13:51.226Z,-1.90
2019-02-08T05:16:56.306Z,-2.05
2019-02-08T05:20:01.498Z,-1.98
2019-02-08T05:23:06.741Z,-2.12
2019-02-08T05:26:11.911Z,-2.11
2019-02-08T05:29:17.041Z,-1.97
2019-02-08T05:32:22.183Z,-1.95
2019-02-08T05:35:27.654Z,-1.90
2019-02-08T05:38:32.827Z,-1.86
2019-02-08T05:41:38.081Z,-1.86
2019-02-08T05:44:43.315Z,-1.77
2019-02-08T05:47:48.519Z,-1.62
2019-02-08T05:50:53.657Z,-1.69
2019-02-08T05:53:58.794Z,-1.72
2019-02-08T05:57:03.943Z,-1.75
2019-02-08T06:00:32.161Z,-1.81
2019-02-08T06:03:37.284Z,-1.75
2019-02-08T06:06:42.393Z,-1.74
2019-02-08T06:09:47.536Z,-1.70
2019-02-08T06:12:52.622Z,-1.65
2019-02-08T06:15:57.735Z,-1.56
2019-02-08T06:19:02.865Z,-1.58
2019-02-08T06:22:07.988Z,-1.50
2019-02-08T06:25:13.593Z,-1.48
2019-02-08T06:28:18.810Z,-1.41
2019-02-08T06:31:23.939Z,-1.38
2019-02-08T06:34:29.076Z,-1.33
2019-02-08T06:37:34.278Z,-1.24
2019-02-08T06:40:42.292Z,-1.20
2019-02-08T06:43:47.518Z,-1.23
2019-02-08T06:46:52.639Z,-1.14
2019-02-08T06:49:57.858Z,-0.99
2019-02-08T06:53:03.131Z,-1.01
2019-02-08T06:56:11.043Z,-1.00
2019-02-08T06:59:29.159Z,-0.87
2019-02-08T07:02:43.304Z,-0.84
2019-02-08T07:06:07.423Z,-0.70
2019-02-08T07:09:34.593Z,-0.83
2019-02-08T07:13:04.828Z,-0.85
2019-02-08T07:16:28.952Z,-0.65
2019-02-08T07:19:53.010Z,-0.64
2019-02-08T07:23:32.301Z,-0.60
2019-02-08T07:27:06.692Z,-0.61
2019-02-08T07:30:29.275Z,-0.55
2019-02-08T07:34:05.612Z,-0.48
2019-02-08T07:37:28.636Z,-0.46
2019-02-08T07:41:01.508Z,-0.34
2019-02-08T07:44:42.843Z,-0.32
2019-02-08T07:48:07.635Z,-0.30
2019-02-08T07:51:43.721Z,-0.32
2019-02-08T07:54:57.801Z,-0.25
2019-02-08T07:58:12.375Z,-0.15
2019-02-08T08:01:44.886Z,0.18
2019-02-08T08:05:08.913Z,0.11
2019-02-08T08:08:45.186Z,0.44
2019-02-08T08:12:18.924Z,0.50
2019-02-08T08:15:37.757Z,0.69
2019-02-08T08:19:08.390Z,0.57
2019-02-08T08:22:33.556Z,0.65
2019-02-08T08:25:59.329Z,0.80
2019-02-08T08:29:19.718Z,0.95
2019-02-08T08:32:39.332Z,1.11
2019-02-08T08:36:16.542Z,1.26
2019-02-08T08:39:41.770Z,1.21
2019-02-08T08:43:34.818Z,1.16
2019-02-08T08:47:06.027Z,1.25
2019-02-08T08:50:44.618Z,1.46
2019-02-08T08:54:36.835Z,1.62
2019-02-08T08:58:04.695Z,1.96
2019-02-08T09:01:39.701Z,2.31
2019-02-08T09:05:29.242Z,2.63
2019-02-08T09:09:26.069Z,2.84
2019-02-08T09:12:57.403Z,3.22
2019-02-08T09:16:34.561Z,3.11
2019-02-08T09:20:17.163Z,2.83
2019-02-08T09:23:53.851Z,2.77
2019-02-08T09:27:48.217Z,2.75
2019-02-08T09:31:44.158Z,2.77
2019-02-08T09:36:03.926Z,2.89
2019-02-08T09:39:46.008Z,2.89
2019-02-08T09:43:26.089Z,2.82
2019-02-08T09:46:59.721Z,2.84
2019-02-08T09:50:53.923Z,2.97
2019-02-08T09:54:36.013Z,2.94
2019-02-08T09:58:18.246Z,3.04
2019-02-08T10:01:55.700Z,3.27
2019-02-08T10:05:53.919Z,3.60
2019-02-08T10:09:41.648Z,3.97
2019-02-08T10:13:22.496Z,4.18
2019-02-08T10:17:10.774Z,4.43
2019-02-08T10:20:40.474Z,5.03
2019-02-08T10:24:22.606Z,5.34
2019-02-08T10:28:12.835Z,5.54
2019-02-08T10:31:52.248Z,5.04
2019-02-08T10:35:34.346Z,4.97
2019-02-08T10:39:44.924Z,5.13
2019-02-08T10:43:25.927Z,5.50
2019-02-08T10:47:06.308Z,6.34
2019-02-08T10:50:55.910Z,6.82
2019-02-08T10:54:34.228Z,6.26
2019-02-08T10:58:15.341Z,6.53
2019-02-08T11:02:04.520Z,6.52
2019-02-08T11:05:47.131Z,6.72
2019-02-08T11:09:35.859Z,6.96
2019-02-08T11:13:46.080Z,6.82
2019-02-08T11:17:22.601Z,7.04
2019-02-08T11:23:39.880Z,7.54
2019-02-08T11:26:45.718Z,7.65
2019-02-08T11:29:51.078Z,7.89
2019-02-08T11:32:56.470Z,7.65
2019-02-08T11:36:01.857Z,7.89
2019-02-08T11:39:13.816Z,8.12
2019-02-08T11:42:19.111Z,8.58
2019-02-08T11:45:24.937Z,8.76
2019-02-08T11:48:30.175Z,8.87
2019-02-08T11:51:35.533Z,8.68
2019-02-08T11:54:40.834Z,8.85
2019-02-08T11:57:46.253Z,8.97
2019-02-08T12:00:54.219Z,8.59
2019-02-08T12:03:59.617Z,8.93
2019-02-08T12:07:05.122Z,9.16
2019-02-08T12:10:11.199Z,9.47
2019-02-08T12:13:16.525Z,9.46
2019-02-08T12:16:21.829Z,9.55
2019-02-08T12:19:27.105Z,9.50
2019-02-08T12:22:32.332Z,9.72
2019-02-08T12:25:37.678Z,9.75
2019-02-08T12:28:43.057Z,9.65
2019-02-08T12:31:48.348Z,9.47
2019-02-08T12:34:53.599Z,9.90
2019-02-08T12:37:58.905Z,10.27
2019-02-08T12:41:09.693Z,10.04
2019-02-08T12:44:12.026Z,9.95
2019-02-08T12:47:17.547Z,9.63
2019-02-08T12:50:22.890Z,9.96
2019-02-08T12:53:28.228Z,9.84
2019-02-08T12:56:33.473Z,9.67
2019-02-08T12:59:38.848Z,9.83
2019-02-08T13:02:44.253Z,10.02
2019-02-08T13:05:49.546Z,10.07
2019-02-08T13:08:54.859Z,9.88
2019-02-08T13:12:00.680Z,9.53
2019-02-08T13:15:07.723Z,9.37
2019-02-08T13:18:13.033Z,9.44
2019-02-08T13:21:18.315Z,9.33
2019-02-08T13:24:24.981Z,9.38
2019-02-08T13:27:30.314Z,9.46
2019-02-08T13:30:35.906Z,9.30
2019-02-08T13:33:41.210Z,9.18
2019-02-08T13:36:46.544Z,9.11
2019-02-08T13:39:52.030Z,8.83
2019-02-08T13:42:57.318Z,8.71
2019-02-08T13:46:02.891Z,8.71
2019-02-08T13:49:08.271Z,8.65
2019-02-08T13:52:13.622Z,8.48
2019-02-08T13:55:20.127Z,8.60
2019-02-08T13:58:25.529Z,8.58
2019-02-08T14:01:30.866Z,8.54
2019-02-08T14:04:36.192Z,8.38
2019-02-08T14:07:41.583Z,8.33
2019-02-08T14:10:46.796Z,8.33
2019-02-08T14:13:52.106Z,8.40
2019-02-08T14:16:57.449Z,8.37
2019-02-08T14:20:02.795Z,8.50
2019-02-08T14:23:08.044Z,8.62
2019-02-08T14:26:13.500Z,8.53
2019-02-08T14:29:18.849Z,8.55
2019-02-08T14:32:24.178Z,8.71
2019-02-08T14:35:29.739Z,8.47
2019-02-08T14:38:35.614Z,8.51
2019-02-08T14:41:41.036Z,8.35
2019-02-08T14:44:46.363Z,8.56
2019-02-08T14:47:51.804Z,8.39
2019-02-08T14:50:57.153Z,8.35
2019-02-08T14:54:02.641Z,8.22
2019-02-08T14:57:16.324Z,8.25
2019-02-08T15:00:18.013Z,8.30
2019-02-08T15:03:23.378Z,8.25
2019-02-08T15:06:28.629Z,8.21
2019-02-08T15:09:33.902Z,8.19
2019-02-08T15:12:39.446Z,8.12
2019-02-08T15:15:44.726Z,8.01
2019-02-08T15:18:50.019Z,8.02
2019-02-08T15:21:55.348Z,7.97
2019-02-08T15:25:00.693Z,7.89
2019-02-08T15:28:06.255Z,7.89
2019-02-08T15:31:11.573Z,7.76
2019-02-08T15:34:16.866Z,7.65
2019-02-08T15:37:22.256Z,7.58
2019-02-08T15:40:42.632Z,7.59
2019-02-08T15:43:47.922Z,7.47
2019-02-08T15:46:53.465Z,7.33
2019-02-08T15:49:58.797Z,7.29
2019-02-08T15:53:04.177Z,7.27
2019-02-08T15:56:13.637Z,7.23
2019-02-08T15:59:18.980Z,7.16
2019-02-08T16:02:24.286Z,7.14
2019-02-08T16:05:30.556Z,7.00
2019-02-08T16:08:35.886Z,6.78
2019-02-08T16:11:41.283Z,6.54
2019-02-08T16:14:46.575Z,6.45
2019-02-08T16:17:52.427Z,6.28
2019-02-08T16:20:57.813Z,6.07
2019-02-08T16:24:03.215Z,6.11
2019-02-08T16:27:08.574Z,5.86
2019-02-08T16:30:19.598Z,5.89
2019-02-08T16:33:24.949Z,5.77
2019-02-08T16:36:30.237Z,5.69
2019-02-08T16:39:35.608Z,5.63
2019-02-08T16:42:41.015Z,5.57
2019-02-08T16:45:46.533Z,5.45
2019-02-08T16:48:51.998Z,5.45
2019-02-08T16:52:28.496Z,5.58
2019-02-08T16:55:37.762Z,5.61
2019-02-08T16:58:43.296Z,5.59
2019-02-08T17:01:48.683Z,5.56
2019-02-08T17:04:54.053Z,5.41
2019-02-08T17:07:59.624Z,5.33
2019-02-08T17:11:18.519Z,5.11
2019-02-08T17:14:23.857Z,4.89
2019-02-08T17:17:29.173Z,4.72
2019-02-08T17:20:39.743Z,4.63
2019-02-08T17:23:45.103Z,4.53
2019-02-08T17:26:50.538Z,4.41
2019-02-08T17:29:56.934Z,4.30
2019-02-08T17:33:02.311Z,4.18
2019-02-08T17:36:07.623Z,4.12
2019-02-08T17:39:14.656Z,3.96
2019-02-08T17:42:20.131Z,3.81
2019-02-08T17:45:25.543Z,3.69
2019-02-08T17:48:30.887Z,3.63
2019-02-08T17:51:36.962Z,3.44
2019-02-08T17:54:42.434Z,3.37
2019-02-08T17:57:47.958Z,3.26
2019-02-08T18:00:55.514Z,3.17
2019-02-08T18:04:00.820Z,3.08
2019-02-08T18:07:06.170Z,2.99
2019-02-08T18:10:15.158Z,3.01
2019-02-08T18:13:20.537Z,2.79
2019-02-08T18:16:26.040Z,2.69
2019-02-08T18:19:31.413Z,2.78
2019-02-08T18:22:36.798Z,3.05
2019-02-08T18:25:42.619Z,2.87
2019-02-08T18:28:48.020Z,2.74
2019-02-08T18:31:53.416Z,2.74
2019-02-08T18:34:58.949Z,2.68
2019-02-08T18:38:05.276Z,2.70
2019-02-08T18:41:10.665Z,2.56
2019-02-08T18:44:16.097Z,2.49
2019-02-08T18:47:21.485Z,2.39
2019-02-08T18:50:29.176Z,2.39
2019-02-08T18:53:34.478Z,2.52
2019-02-08T18:56:39.785Z,2.41
2019-02-08T18:59:45.320Z,2.22
2019-02-08T19:02:50.686Z,2.05
2019-02-08T19:05:56.053Z,1.88
2019-02-08T19:09:01.359Z,1.92
2019-02-08T19:12:08.380Z,1.81
2019-02-08T19:15:15.351Z,1.76
2019-02-08T19:18:20.654Z,1.89
2019-02-08T19:21:25.995Z,1.75
2019-02-08T19:24:31.374Z,1.65
2019-02-08T19:27:36.835Z,1.86
2019-02-08T19:30:42.767Z,1.75
2019-02-08T19:33:48.142Z,1.66
2019-02-08T19:36:53.616Z,1.62
2019-02-08T19:39:59.137Z,1.70
2019-02-08T19:43:04.860Z,1.72
2019-02-08T19:46:10.304Z,1.68
2019-02-08T19:49:15.979Z,1.70
2019-02-08T19:52:21.284Z,1.67
2019-02-08T19:55:27.106Z,1.63
2019-02-08T19:58:34.847Z,1.61
2019-02-08T20:01:40.461Z,1.58
2019-02-08T20:04:45.878Z,1.74
2019-02-08T20:07:51.848Z,1.72
2019-02-08T20:10:57.291Z,1.72
2019-02-08T20:14:02.854Z,1.85
2019-02-08T20:17:08.565Z,1.89
2019-02-08T20:20:14.129Z,1.73
2019-02-08T20:23:19.765Z,1.71
2019-02-08T20:26:25.340Z,1.64
2019-02-08T20:29:31.934Z,1.63
2019-02-08T20:32:38.454Z,1.53
2019-02-08T20:35:43.879Z,1.53
2019-02-08T20:38:49.420Z,1.52
2019-02-08T20:41:54.808Z,1.38
2019-02-08T20:45:00.303Z,1.37
2019-02-08T20:48:12.135Z,1.56
2019-02-08T20:51:17.482Z,1.32
2019-02-08T20:54:22.927Z,1.26
2019-02-08T20:57:28.294Z,1.32
2019-02-08T21:00:37.013Z,1.31
2019-02-08T21:03:42.294Z,1.22
2019-02-08T21:06:47.803Z,1.25
2019-02-08T21:09:53.312Z,1.53
2019-02-08T21:12:58.726Z,1.48
2019-02-08T21:16:04.207Z,1.53
2019-02-08T21:19:09.791Z,1.42
2019-02-08T21:22:15.152Z,1.45
2019-02-08T21:25:23.093Z,1.35
2019-02-08T21:28:29.455Z,1.26
2019-02-08T21:31:34.791Z,1.21
2019-02-08T21:34:40.234Z,1.20
2019-02-08T21:37:45.894Z,1.23
2019-02-08T21:40:51.307Z,1.20
2019-02-08T21:43:56.792Z,1.15
2019-02-08T21:47:02.111Z,1.05
2019-02-08T21:50:10.298Z,0.97
2019-02-08T21:53:15.690Z,0.86
2019-02-08T21:56:21.266Z,0.87
2019-02-08T21:59:26.827Z,0.86
2019-02-08T22:02:32.272Z,0.79
2019-02-08T22:06:00.956Z,0.75
2019-02-08T22:09:08.920Z,0.89
2019-02-08T22:12:15.792Z,0.83
2019-02-08T22:15:24.770Z,0.87
2019-02-08T22:18:30.078Z,0.86
2019-02-08T22:21:35.454Z,0.75
2019-02-08T22:24:40.902Z,0.78
2019-02-08T22:27:46.441Z,0.80
2019-02-08T22:30:51.754Z,0.80
2019-02-08T22:33:57.149Z,0.81
2019-02-08T22:37:02.449Z,0.84
2019-02-08T22:40:10.826Z,0.87
2019-02-08T22:43:16.215Z,1.07
2019-02-08T22:46:21.820Z,1.02
2019-02-08T22:49:27.177Z,0.94
2019-02-08T22:52:32.435Z,0.97
2019-02-08T22:55:37.892Z,1.04
2019-02-08T22:58:43.346Z,1.04
2019-02-08T23:01:51.508Z,1.09
2019-02-08T23:04:59.861Z,1.08
2019-02-08T23:08:06.248Z,1.04
2019-02-08T23:11:11.637Z,1.09
2019-02-08T23:14:17.048Z,0.95
2019-02-08T23:17:22.346Z,0.81
2019-02-08T23:20:27.795Z,0.85
2019-02-08T23:23:33.422Z,0.65
2019-02-08T23:26:38.816Z,0.68
2019-02-08T23:29:44.147Z,0.72
2019-02-08T23:32:49.574Z,0.96
2019-02-08T23:35:55.074Z,1.11
2019-02-08T23:39:00.403Z,1.25
2019-02-08T23:42:07.342Z,1.31
2019-02-08T23:45:14.003Z,1.35
2019-02-08T23:48:19.294Z,1.36
2019-02-08T23:51:24.722Z,1.33
2019-02-08T23:54:29.954Z,1.60
2019-02-08T23:57:36.279Z,1.40
